Artois, California
Current Conditions -  °F | °C
As of 6:50 AM on Wednesday 26 Nov 2014 (Local Time) from KCIC Reporting Station
Scattered Clouds Scattered Clouds  
Wind Chill: 37°   Ceiling: Unl
Heat Index: 41°   Visibility: 40mi
Dew Point: 41°   Wind: 6mph
Humidity: 100%   Direction: 20°NNE
Pressure: 30.35"   Gusts: NA
Location:  39.62°N, 122.2°W
Report Text: KCIC 261450Z 02005KT 40SM SCT180 05/05 A3035
Loading
Personal Weather Stations






























Interactive Weather Map New forecast layout! Learn more

10-Day Weather Forecast

Advertisements
Track Severe Weather on mobile